createdAt,value
2022-08-16T00:00:04.305Z,5.65
2022-08-16T00:02:33.528Z,5.75
2022-08-16T00:05:02.421Z,5.40
2022-08-16T00:07:30.428Z,5.72
2022-08-16T00:09:58.912Z,5.18
2022-08-16T00:12:28.528Z,5.85
2022-08-16T00:14:57.526Z,5.45
2022-08-16T00:17:28.125Z,5.15
2022-08-16T00:19:56.023Z,5.90
2022-08-16T00:22:27.979Z,5.15
2022-08-16T00:24:55.696Z,5.47
2022-08-16T00:27:23.208Z,4.97
2022-08-16T00:30:08.456Z,4.78
2022-08-16T00:32:40.247Z,5.25
2022-08-16T00:35:15.273Z,5.35
2022-08-16T00:37:58.397Z,5.45
2022-08-16T00:40:34.234Z,5.35
2022-08-16T00:43:16.866Z,5.82
2022-08-16T00:46:01.361Z,6.25
2022-08-16T00:48:50.683Z,6.22
2022-08-16T00:51:20.263Z,5.70
2022-08-16T00:53:50.096Z,5.57
2022-08-16T00:56:57.741Z,5.93
2022-08-16T00:59:18.965Z,5.32
2022-08-16T01:01:46.158Z,5.93
2022-08-16T01:04:29.480Z,6.07
2022-08-16T01:07:03.249Z,5.55
2022-08-16T01:09:33.163Z,5.50
2022-08-16T01:12:03.329Z,5.70
2022-08-16T01:14:43.413Z,5.80
2022-08-16T01:17:13.883Z,5.68
2022-08-16T01:19:44.583Z,6.07
2022-08-16T01:22:48.346Z,6.18
2022-08-16T01:25:36.251Z,6.57
2022-08-16T01:28:08.192Z,6.78
2022-08-16T01:30:50.021Z,7.72
2022-08-16T01:33:20.176Z,6.65
2022-08-16T01:36:00.480Z,6.70
2022-08-16T01:38:33.033Z,6.37
2022-08-16T01:41:05.148Z,5.93
2022-08-16T01:43:36.662Z,6.55
2022-08-16T01:46:29.896Z,6.63
2022-08-16T01:49:04.315Z,6.03
2022-08-16T01:51:31.946Z,7.20
2022-08-16T01:53:59.615Z,6.93
2022-08-16T01:56:27.221Z,7.45
2022-08-16T01:58:57.174Z,8.35
2022-08-16T02:01:26.227Z,7.95
2022-08-16T02:03:58.638Z,8.00
2022-08-16T02:09:11.851Z,6.97
2022-08-16T02:11:47.583Z,6.80
2022-08-16T02:14:18.527Z,6.70
2022-08-16T02:16:49.429Z,6.62
2022-08-16T02:19:18.519Z,6.95
2022-08-16T02:22:08.768Z,6.90
2022-08-16T02:24:42.274Z,6.75
2022-08-16T02:27:13.767Z,5.72
2022-08-16T02:29:43.095Z,7.45
2022-08-16T02:32:49.768Z,8.23
2022-08-16T02:35:00.659Z,6.60
2022-08-16T02:37:39.782Z,6.65
2022-08-16T02:40:17.244Z,6.57
2022-08-16T02:42:45.551Z,6.55
2022-08-16T02:45:27.697Z,7.62
2022-08-16T02:48:01.344Z,7.22
2022-08-16T02:50:54.004Z,6.70
2022-08-16T02:53:30.979Z,6.90
2022-08-16T02:55:59.237Z,7.57
2022-08-16T02:58:28.365Z,7.10
2022-08-16T03:00:57.465Z,7.30
2022-08-16T03:03:26.807Z,6.68
2022-08-16T03:06:42.480Z,6.32
2022-08-16T03:09:03.883Z,7.72
2022-08-16T03:11:35.595Z,7.25
2022-08-16T03:14:08.372Z,7.12
2022-08-16T03:16:39.071Z,7.62
2022-08-16T03:19:10.846Z,7.90
2022-08-16T03:21:38.874Z,8.13
2022-08-16T03:24:28.942Z,7.10
2022-08-16T03:26:58.119Z,7.32
2022-08-16T03:29:29.990Z,7.93
2022-08-16T03:32:01.556Z,8.60
2022-08-16T03:34:29.893Z,8.00
2022-08-16T03:36:58.313Z,7.60
2022-08-16T03:39:25.646Z,6.45
2022-08-16T03:41:59.911Z,8.00
2022-08-16T03:44:44.545Z,8.02
2022-08-16T03:47:19.143Z,7.32
2022-08-16T03:49:51.682Z,7.47
2022-08-16T03:52:23.860Z,8.07
2022-08-16T03:54:59.927Z,8.00
2022-08-16T03:57:31.887Z,8.15
2022-08-16T04:00:20.603Z,7.65
2022-08-16T04:03:07.697Z,8.15
2022-08-16T04:05:38.862Z,7.05
2022-08-16T04:08:22.915Z,7.93
2022-08-16T04:10:53.122Z,7.65
2022-08-16T04:13:58.856Z,8.02
2022-08-16T04:16:09.546Z,7.95
2022-08-16T04:19:02.159Z,7.50
2022-08-16T04:21:36.352Z,7.57
2022-08-16T04:24:15.498Z,7.68
2022-08-16T04:26:46.048Z,8.07
2022-08-16T04:31:56.284Z,8.00
2022-08-16T04:34:29.594Z,7.68
2022-08-16T04:39:37.009Z,7.10
2022-08-16T04:42:17.951Z,8.15
2022-08-16T04:44:53.372Z,7.82
2022-08-16T04:47:35.326Z,7.87
2022-08-16T04:50:12.566Z,7.75
2022-08-16T04:52:55.584Z,8.57
2022-08-16T04:55:31.742Z,7.05
2022-08-16T04:58:44.106Z,7.90
2022-08-16T05:00:55.011Z,7.37
2022-08-16T05:03:22.479Z,7.85
2022-08-16T05:05:59.142Z,11.57
2022-08-16T05:08:33.026Z,8.05
2022-08-16T05:11:09.833Z,7.53
2022-08-16T05:13:42.592Z,7.70
2022-08-16T05:16:32.338Z,7.62
2022-08-16T05:19:02.359Z,7.65
2022-08-16T05:21:37.956Z,6.47
2022-08-16T05:24:07.354Z,6.85
2022-08-16T05:26:40.822Z,6.47
2022-08-16T05:29:14.731Z,6.68
2022-08-16T05:31:48.420Z,6.78
2022-08-16T05:34:22.422Z,7.00
2022-08-16T05:36:51.224Z,6.75
2022-08-16T05:39:20.567Z,6.15
2022-08-16T05:41:48.990Z,7.12
2022-08-16T05:44:22.438Z,7.05
2022-08-16T05:46:56.743Z,6.55
2022-08-16T05:49:36.843Z,6.28
2022-08-16T05:52:13.468Z,6.15
2022-08-16T05:54:47.278Z,6.90
2022-08-16T05:57:17.653Z,6.85
2022-08-16T05:59:47.385Z,6.70
2022-08-16T06:02:18.689Z,6.97
2022-08-16T06:04:46.407Z,6.53
2022-08-16T06:07:24.837Z,6.28
2022-08-16T06:09:58.282Z,6.10
2022-08-16T06:12:28.688Z,6.75
2022-08-16T06:14:59.333Z,7.15
2022-08-16T06:17:41.651Z,6.68
2022-08-16T06:20:24.149Z,6.50
2022-08-16T06:22:58.823Z,7.35
2022-08-16T06:25:36.523Z,6.95
2022-08-16T06:28:17.024Z,7.20
2022-08-16T06:30:45.955Z,6.72
2022-08-16T06:33:19.485Z,6.78
2022-08-16T06:35:47.386Z,7.25
2022-08-16T06:38:34.060Z,7.32
2022-08-16T06:41:12.310Z,7.40
2022-08-16T06:43:41.905Z,7.80
2022-08-16T06:46:23.744Z,6.95
2022-08-16T06:49:08.201Z,7.12
2022-08-16T06:51:46.192Z,6.57
2022-08-16T06:54:17.139Z,7.82
2022-08-16T06:56:44.772Z,7.62
2022-08-16T06:59:13.060Z,7.55
2022-08-16T07:01:44.471Z,7.93
2022-08-16T07:04:33.317Z,8.00
2022-08-16T07:07:06.304Z,8.48
2022-08-16T07:12:05.806Z,8.45
2022-08-16T07:14:33.779Z,8.95
2022-08-16T07:17:03.591Z,9.13
2022-08-16T07:20:29.320Z,9.38
2022-08-16T07:22:37.297Z,10.38
2022-08-16T07:25:09.977Z,9.45
2022-08-16T07:27:38.428Z,9.48
2022-08-16T07:30:45.033Z,9.43
2022-08-16T07:32:56.885Z,9.57
2022-08-16T07:35:25.164Z,9.50
2022-08-16T07:37:52.156Z,8.85
2022-08-16T07:40:31.831Z,9.68
2022-08-16T07:43:07.459Z,8.40
2022-08-16T07:45:35.054Z,9.23
2022-08-16T07:48:11.788Z,8.80
2022-08-16T07:50:56.594Z,9.05
2022-08-16T07:53:31.588Z,15.57
2022-08-16T07:56:00.535Z,22.40
2022-08-16T07:58:34.236Z,16.02
2022-08-16T08:01:10.585Z,10.23
2022-08-16T08:03:48.444Z,11.27
2022-08-16T08:06:25.073Z,10.82
2022-08-16T08:08:59.154Z,9.75
2022-08-16T08:11:28.471Z,9.23
2022-08-16T08:14:03.496Z,8.93
2022-08-16T08:16:33.120Z,8.40
2022-08-16T08:19:02.783Z,9.35
2022-08-16T08:22:01.406Z,8.52
2022-08-16T08:24:21.736Z,8.70
2022-08-16T08:26:50.310Z,8.75
2022-08-16T08:29:23.199Z,9.20
2022-08-16T08:32:58.398Z,9.27
2022-08-16T08:34:53.643Z,9.88
2022-08-16T08:37:22.537Z,9.82
2022-08-16T08:39:54.821Z,10.25
2022-08-16T08:42:25.181Z,18.87
2022-08-16T08:44:54.878Z,9.60
2022-08-16T08:47:22.871Z,8.40
2022-08-16T08:49:55.753Z,12.23
2022-08-16T08:52:34.722Z,8.48
2022-08-16T08:55:09.200Z,8.93
2022-08-16T08:57:46.128Z,8.88
2022-08-16T09:00:15.657Z,8.60
2022-08-16T09:02:52.206Z,8.20
2022-08-16T09:05:22.466Z,7.93
2022-08-16T09:08:01.176Z,7.65
2022-08-16T09:10:30.885Z,7.68
2022-08-16T09:12:59.345Z,8.40
2022-08-16T09:15:32.784Z,8.18
2022-08-16T09:18:25.069Z,8.50
2022-08-16T09:20:58.390Z,7.07
2022-08-16T09:23:26.018Z,8.98
2022-08-16T09:25:54.698Z,9.57
2022-08-16T09:29:13.527Z,8.73
2022-08-16T09:31:11.012Z,9.02
2022-08-16T09:33:39.347Z,9.23
2022-08-16T09:36:12.101Z,9.18
2022-08-16T09:38:59.577Z,9.98
2022-08-16T09:41:27.147Z,10.25
2022-08-16T09:44:00.211Z,11.45
2022-08-16T09:46:45.927Z,8.95
2022-08-16T09:49:16.662Z,9.98
2022-08-16T09:51:49.632Z,9.20
2022-08-16T09:54:20.961Z,9.10
2022-08-16T09:56:52.994Z,9.40
2022-08-16T09:59:25.506Z,9.45
2022-08-16T10:01:58.082Z,9.27
2022-08-16T10:04:31.539Z,11.07
2022-08-16T10:07:02.463Z,9.60
2022-08-16T10:09:45.062Z,10.52
2022-08-16T10:12:42.943Z,10.40
2022-08-16T10:15:15.482Z,10.00
2022-08-16T10:18:00.671Z,9.23
2022-08-16T10:20:33.938Z,9.85
2022-08-16T10:23:06.745Z,10.20
2022-08-16T10:27:00.760Z,9.75
2022-08-16T10:28:29.965Z,9.05
2022-08-16T10:31:04.318Z,10.07
2022-08-16T10:33:33.480Z,12.27
2022-08-16T10:36:03.867Z,9.38
2022-08-16T10:38:36.861Z,12.98
2022-08-16T10:41:08.527Z,10.18
2022-08-16T10:43:39.141Z,10.55
2022-08-16T10:46:39.277Z,9.98
2022-08-16T10:48:56.863Z,9.25
2022-08-16T10:51:33.437Z,11.65
2022-08-16T10:54:00.983Z,9.95
2022-08-16T10:56:55.393Z,12.43
2022-08-16T10:59:32.666Z,11.38
2022-08-16T11:07:43.728Z,17.12
2022-08-16T11:10:20.745Z,13.57
2022-08-16T11:12:48.529Z,18.65
2022-08-16T11:15:20.316Z,11.68
2022-08-16T11:18:48.460Z,20.83
2022-08-16T11:20:41.296Z,14.60
2022-08-16T11:23:11.064Z,10.55
2022-08-16T11:31:13.542Z,13.98
2022-08-16T11:33:55.819Z,13.00
2022-08-16T11:36:27.953Z,13.68
2022-08-16T11:39:00.362Z,16.02
2022-08-16T11:41:30.854Z,22.17
2022-08-16T11:46:45.321Z,12.05
2022-08-16T11:49:14.201Z,11.52
2022-08-16T11:51:44.401Z,11.32
2022-08-16T11:54:21.547Z,11.20
2022-08-16T11:56:57.666Z,10.68
2022-08-16T11:59:28.901Z,10.90
2022-08-16T12:02:31.368Z,10.00
2022-08-16T12:04:51.986Z,15.25
2022-08-16T12:07:20.824Z,11.30
2022-08-16T12:09:53.295Z,16.67
2022-08-16T12:12:21.072Z,14.10
2022-08-16T12:14:59.845Z,12.70
2022-08-16T12:17:32.438Z,12.43
2022-08-16T12:20:01.510Z,13.80
2022-08-16T12:22:29.136Z,12.68
2022-08-16T12:24:56.473Z,18.40
2022-08-16T12:27:25.737Z,24.42
2022-08-16T12:29:54.007Z,22.13
2022-08-16T12:32:37.534Z,13.70
2022-08-16T12:35:12.157Z,11.88
2022-08-16T12:37:41.520Z,17.00
2022-08-16T12:40:23.702Z,17.50
2022-08-16T12:42:58.446Z,12.25
2022-08-16T12:45:30.902Z,16.60
2022-08-16T12:48:33.464Z,12.30
2022-08-16T12:51:10.970Z,13.00
2022-08-16T12:53:47.680Z,17.77
2022-08-16T12:56:14.901Z,12.57
2022-08-16T12:58:48.788Z,11.25
2022-08-16T13:01:24.651Z,14.45
2022-08-16T13:04:12.134Z,14.82
2022-08-16T13:06:44.254Z,16.23
2022-08-16T13:09:20.992Z,12.10
2022-08-16T13:12:00.103Z,12.68
2022-08-16T13:14:39.582Z,13.13
2022-08-16T13:17:18.819Z,10.65
2022-08-16T13:20:07.728Z,29.63
2022-08-16T13:22:42.990Z,17.80
2022-08-16T13:25:19.436Z,15.88
2022-08-16T13:28:02.033Z,16.10
2022-08-16T13:30:41.168Z,17.00
2022-08-16T13:33:16.480Z,15.43
2022-08-16T13:35:56.428Z,14.90
2022-08-16T13:38:30.199Z,9.27
2022-08-16T13:41:02.646Z,8.65
2022-08-16T13:43:32.688Z,10.23
2022-08-16T13:46:04.369Z,9.23
2022-08-16T13:48:42.855Z,11.45
2022-08-16T13:51:16.804Z,11.88
2022-08-16T13:53:54.321Z,10.57
2022-08-16T13:56:25.737Z,11.32
2022-08-16T13:58:55.012Z,11.32
2022-08-16T14:01:22.544Z,12.43
2022-08-16T14:03:50.463Z,18.08
2022-08-16T14:06:21.949Z,27.27
2022-08-16T14:08:50.360Z,23.77
2022-08-16T14:11:33.485Z,22.58
2022-08-16T14:14:01.791Z,20.73
2022-08-16T14:16:33.632Z,17.17
2022-08-16T14:19:02.204Z,10.98
2022-08-16T14:21:35.384Z,12.20
2022-08-16T14:24:12.911Z,9.48
2022-08-16T14:26:50.032Z,11.88
2022-08-16T14:31:54.133Z,10.27
2022-08-16T14:34:21.964Z,9.05
2022-08-16T14:36:52.959Z,11.85
2022-08-16T14:39:22.195Z,12.93
2022-08-16T14:41:49.368Z,12.60
2022-08-16T14:44:20.177Z,10.23
2022-08-16T14:46:46.966Z,12.93
2022-08-16T14:49:14.474Z,13.40
2022-08-16T14:51:46.003Z,11.77
2022-08-16T14:54:12.830Z,21.37
2022-08-16T14:56:46.901Z,13.38
2022-08-16T14:59:22.542Z,17.15
2022-08-16T15:01:58.780Z,14.43
2022-08-16T15:04:39.623Z,17.12
2022-08-16T15:07:15.800Z,12.05
2022-08-16T15:10:01.225Z,12.55
2022-08-16T15:12:34.160Z,13.02
2022-08-16T15:15:12.095Z,10.60
2022-08-16T15:17:43.209Z,11.93
2022-08-16T15:20:22.592Z,13.02
2022-08-16T15:22:51.014Z,12.13
2022-08-16T15:25:29.190Z,11.65
2022-08-16T15:27:58.518Z,10.88
2022-08-16T15:30:48.101Z,9.73
2022-08-16T15:33:20.636Z,10.48
2022-08-16T15:35:50.655Z,10.77
2022-08-16T15:38:55.000Z,12.52
2022-08-16T15:41:05.389Z,13.45
2022-08-16T15:43:39.098Z,11.63
2022-08-16T15:46:35.663Z,12.35
2022-08-16T15:49:12.063Z,12.77
2022-08-16T15:51:39.951Z,12.30
2022-08-16T15:54:21.301Z,15.77
2022-08-16T15:56:55.249Z,21.10
2022-08-16T15:59:27.397Z,15.23
2022-08-16T16:01:56.514Z,12.40
2022-08-16T16:04:28.564Z,12.48
2022-08-16T16:06:56.667Z,12.52
2022-08-16T16:09:36.716Z,12.55
2022-08-16T16:12:34.061Z,12.20
2022-08-16T16:14:54.721Z,14.63
2022-08-16T16:17:21.502Z,13.13
2022-08-16T16:19:49.825Z,12.95
2022-08-16T16:22:21.781Z,13.10
2022-08-16T16:24:52.049Z,12.88
2022-08-16T16:27:18.958Z,13.32
2022-08-16T16:29:57.778Z,13.35
2022-08-16T16:32:34.168Z,14.48
2022-08-16T16:35:06.295Z,12.93
2022-08-16T16:37:33.440Z,12.85
2022-08-16T16:40:01.088Z,12.70
2022-08-16T16:42:35.347Z,12.35
2022-08-16T16:45:10.518Z,13.50
2022-08-16T16:47:40.830Z,13.30
2022-08-16T16:50:10.220Z,15.23
2022-08-16T16:52:44.229Z,13.95
2022-08-16T16:55:15.793Z,13.82
2022-08-16T16:58:03.283Z,13.70
2022-08-16T17:00:38.278Z,14.02
2022-08-16T17:03:17.011Z,15.40
2022-08-16T17:05:56.860Z,15.60
2022-08-16T17:08:27.334Z,14.55
2022-08-16T17:10:55.983Z,13.20
2022-08-16T17:13:25.221Z,11.73
2022-08-16T17:15:53.921Z,11.25
2022-08-16T17:19:17.450Z,11.45
2022-08-16T17:21:11.354Z,10.25
2022-08-16T17:23:59.496Z,10.45
2022-08-16T17:26:31.001Z,11.02
2022-08-16T17:29:02.268Z,10.73
2022-08-16T17:31:41.141Z,11.43
2022-08-16T17:34:30.162Z,11.05
2022-08-16T17:37:05.325Z,11.77
2022-08-16T17:39:45.276Z,11.10
2022-08-16T17:42:25.338Z,9.93
2022-08-16T17:44:52.769Z,9.60
2022-08-16T17:47:21.724Z,10.18
2022-08-16T17:49:49.096Z,10.35
2022-08-16T17:52:17.016Z,10.93
2022-08-16T17:54:44.516Z,10.43
2022-08-16T17:57:12.440Z,10.65
2022-08-16T17:59:41.065Z,10.50
2022-08-16T18:02:42.342Z,11.30
2022-08-16T18:04:55.680Z,10.55
2022-08-16T18:07:23.004Z,11.27
2022-08-16T18:09:52.321Z,11.20
2022-08-16T18:12:51.008Z,11.02
2022-08-16T18:15:11.247Z,11.88
2022-08-16T18:17:38.613Z,11.13
2022-08-16T18:20:07.134Z,11.23
2022-08-16T18:22:34.280Z,11.90
2022-08-16T18:25:01.465Z,11.85
2022-08-16T18:27:29.812Z,11.52
2022-08-16T18:29:56.533Z,11.43
2022-08-16T18:32:24.824Z,11.00
2022-08-16T18:34:54.489Z,12.50
2022-08-16T18:37:23.340Z,11.90
2022-08-16T18:39:50.509Z,11.43
2022-08-16T18:42:17.350Z,11.65
2022-08-16T18:44:44.691Z,11.40
2022-08-16T18:47:11.765Z,12.27
2022-08-16T18:49:38.904Z,11.88
2022-08-16T18:52:05.858Z,11.48
2022-08-16T18:54:34.235Z,11.68
2022-08-16T18:57:20.913Z,11.07
2022-08-16T18:59:48.001Z,11.10
2022-08-16T19:02:56.860Z,11.27
2022-08-16T19:05:25.899Z,12.63
2022-08-16T19:07:52.739Z,11.23
2022-08-16T19:10:20.404Z,11.48
2022-08-16T19:12:47.274Z,11.63
2022-08-16T19:15:23.428Z,11.88
2022-08-16T19:17:50.471Z,11.27
2022-08-16T19:20:21.364Z,12.20
2022-08-16T19:23:05.012Z,12.45
2022-08-16T19:25:46.699Z,10.93
2022-08-16T19:28:49.099Z,12.05
2022-08-16T19:31:05.951Z,11.30
2022-08-16T19:33:32.766Z,12.82
2022-08-16T19:35:59.743Z,12.20
2022-08-16T19:38:26.766Z,12.05
2022-08-16T19:40:53.513Z,11.57
2022-08-16T19:43:21.959Z,12.18
2022-08-16T19:45:49.579Z,11.45
2022-08-16T19:48:16.359Z,12.68
2022-08-16T19:50:43.088Z,11.25
2022-08-16T19:53:18.870Z,12.05
2022-08-16T19:55:47.546Z,11.95
2022-08-16T19:58:16.869Z,12.02
2022-08-16T20:00:45.652Z,13.43
2022-08-16T20:03:23.388Z,11.90
2022-08-16T20:05:51.563Z,11.50
2022-08-16T20:08:18.982Z,10.65
2022-08-16T20:10:48.504Z,11.98
2022-08-16T20:13:21.444Z,12.63
2022-08-16T20:15:49.576Z,12.50
2022-08-16T20:18:24.560Z,13.40
2022-08-16T20:20:52.919Z,17.85
2022-08-16T20:23:24.381Z,13.43
2022-08-16T20:25:55.830Z,13.50
2022-08-16T20:28:45.026Z,11.93
2022-08-16T20:31:11.952Z,13.13
2022-08-16T20:33:38.878Z,11.75
2022-08-16T20:36:05.740Z,12.05
2022-08-16T20:38:32.772Z,10.90
2022-08-16T20:40:59.523Z,11.02
2022-08-16T20:43:26.215Z,12.35
2022-08-16T20:45:53.296Z,11.45
2022-08-16T20:48:20.004Z,11.07
2022-08-16T20:50:46.783Z,11.43
2022-08-16T20:53:13.733Z,11.57
2022-08-16T20:55:41.655Z,11.82
2022-08-16T20:58:08.403Z,10.95
2022-08-16T21:00:35.510Z,11.07
2022-08-16T21:03:12.737Z,11.85
2022-08-16T21:05:40.060Z,10.98
2022-08-16T21:08:27.970Z,13.48
2022-08-16T21:10:54.370Z,12.05
2022-08-16T21:13:21.132Z,11.45
2022-08-16T21:15:48.041Z,11.38
2022-08-16T21:18:15.198Z,11.15
2022-08-16T21:20:41.903Z,10.80
2022-08-16T21:23:10.974Z,10.50
2022-08-16T21:25:39.622Z,10.80
2022-08-16T21:28:40.966Z,10.73
2022-08-16T21:31:07.093Z,10.75
2022-08-16T21:33:35.998Z,10.77
2022-08-16T21:36:03.559Z,10.73
2022-08-16T21:38:31.153Z,10.80
2022-08-16T21:41:03.379Z,10.40
2022-08-16T21:43:32.909Z,10.75
2022-08-16T21:46:01.723Z,10.57
2022-08-16T21:48:34.041Z,10.43
2022-08-16T21:51:14.621Z,10.45
2022-08-16T21:53:42.975Z,9.50
2022-08-16T21:56:16.883Z,9.70
2022-08-16T21:58:46.009Z,9.45
2022-08-16T22:01:13.289Z,10.38
2022-08-16T22:03:40.604Z,10.40
2022-08-16T22:06:13.778Z,10.25
2022-08-16T22:08:48.801Z,8.95
2022-08-16T22:11:19.878Z,10.30
2022-08-16T22:13:58.322Z,10.70
2022-08-16T22:16:36.983Z,9.93
2022-08-16T22:19:05.228Z,10.23
2022-08-16T22:21:33.672Z,10.18
2022-08-16T22:24:00.782Z,9.70
2022-08-16T22:26:31.811Z,9.38
2022-08-16T22:29:02.495Z,9.90
2022-08-16T22:31:29.672Z,10.00
2022-08-16T22:33:57.277Z,9.63
2022-08-16T22:36:28.588Z,10.38
2022-08-16T22:38:58.814Z,10.30
2022-08-16T22:41:28.730Z,10.25
2022-08-16T22:43:56.034Z,10.15
2022-08-16T22:46:22.776Z,9.88
2022-08-16T22:48:50.865Z,10.05
2022-08-16T22:51:19.747Z,9.05
2022-08-16T22:53:46.928Z,10.13
2022-08-16T22:56:15.477Z,9.35
2022-08-16T22:58:42.849Z,10.05
2022-08-16T23:01:10.673Z,10.43
2022-08-16T23:03:38.518Z,9.73
2022-08-16T23:06:06.510Z,9.30
2022-08-16T23:08:39.458Z,9.32
2022-08-16T23:11:21.034Z,10.55
2022-08-16T23:13:54.646Z,20.87
2022-08-16T23:16:33.732Z,11.70
2022-08-16T23:19:10.367Z,9.48
2022-08-16T23:21:40.688Z,9.40
2022-08-16T23:24:08.939Z,9.60
2022-08-16T23:26:45.969Z,9.88
2022-08-16T23:29:24.217Z,8.70
2022-08-16T23:31:59.296Z,9.85
2022-08-16T23:34:28.114Z,10.38
2022-08-16T23:36:55.307Z,9.65
2022-08-16T23:39:22.296Z,10.00
2022-08-16T23:41:49.623Z,10.60
2022-08-16T23:44:56.665Z,11.10
2022-08-16T23:47:05.978Z,10.25
2022-08-16T23:49:56.959Z,11.05
2022-08-16T23:52:45.330Z,9.80
2022-08-16T23:55:07.245Z,9.70
2022-08-16T23:57:34.280Z,9.80
